Time;durP1;ratioP1;P1;durP2;ratioP2;P2;SDS_P1;SDS_P2;PMS_P1;PMS_P2;Temp;Humidity;BMP_temperature;BMP_pressure;BME280_temperature;BME280_humidity;BME280_pressure;Samples;Min_cycle;Max_cycle;Signal;HPM_P1;HPM_P2
2023/05/20 00:01:01;;;;;;;5.82;2.53;;;14.70;87.10;;;;;;6159834;23;20435;-83
2023/05/20 00:03:28;;;;;;;7.82;3.03;;;14.70;87.20;;;;;;6160648;23;20039;-83
2023/05/20 00:05:54;;;;;;;5.97;2.40;;;14.70;87.50;;;;;;6136045;23;20092;-83
2023/05/20 00:08:20;;;;;;;7.43;2.92;;;14.70;87.40;;;;;;6160325;23;20032;-83
2023/05/20 00:10:45;;;;;;;4.28;2.40;;;14.70;87.80;;;;;;6160133;23;20054;-84
2023/05/20 00:13:11;;;;;;;8.40;3.28;;;14.60;87.70;;;;;;6159902;23;20109;-83
2023/05/20 00:15:37;;;;;;;6.82;2.63;;;14.60;87.80;;;;;;6159409;23;20040;-83
2023/05/20 00:18:03;;;;;;;6.13;2.45;;;14.60;88.00;;;;;;6186021;23;20420;-84
2023/05/20 00:20:29;;;;;;;4.90;2.53;;;14.60;88.00;;;;;;6160159;23;20435;-83
2023/05/20 00:22:55;;;;;;;4.72;2.53;;;14.60;88.20;;;;;;6160056;23;19997;-83
2023/05/20 00:25:20;;;;;;;4.70;2.47;;;14.60;88.40;;;;;;6186299;23;20063;-83
2023/05/20 00:27:46;;;;;;;8.38;2.78;;;14.50;88.40;;;;;;6160652;23;20033;-83
2023/05/20 00:30:12;;;;;;;6.15;2.60;;;14.50;88.70;;;;;;6160251;23;20323;-83
2023/05/20 00:32:38;;;;;;;7.93;3.10;;;14.50;88.70;;;;;;6135635;23;20017;-84
2023/05/20 00:35:04;;;;;;;6.43;2.72;;;14.50;88.80;;;;;;6135597;23;20009;-83
2023/05/20 00:37:30;;;;;;;6.00;2.28;;;14.50;89.00;;;;;;6135680;23;20032;-83
2023/05/20 00:39:55;;;;;;;5.97;3.22;;;14.50;89.10;;;;;;6160331;23;20006;-84
2023/05/20 00:42:22;;;;;;;4.47;2.42;;;14.50;89.20;;;;;;6160095;23;20009;-83
2023/05/20 00:44:48;;;;;;;6.95;3.17;;;14.40;89.30;;;;;;6160186;23;20296;-84
2023/05/20 00:47:18;;;;;;;6.50;2.85;;;14.50;89.60;;;;;;6159928;23;20005;-84
2023/05/20 00:49:45;;;;;;;5.97;2.65;;;14.40;89.70;;;;;;6159705;23;20332;-83
2023/05/20 00:52:12;;;;;;;8.10;3.10;;;14.40;89.80;;;;;;6186096;23;20009;-84
2023/05/20 00:54:39;;;;;;;7.10;2.80;;;14.40;90.00;;;;;;6135192;23;20025;-83
2023/05/20 00:57:06;;;;;;;5.28;2.88;;;14.40;90.00;;;;;;6160268;23;20001;-83
2023/05/20 00:59:36;;;;;;;6.93;2.67;;;14.40;90.00;;;;;;6186544;23;20004;-83
2023/05/20 01:02:05;;;;;;;6.35;2.88;;;14.40;90.10;;;;;;6135819;23;20009;-84
2023/05/20 01:04:31;;;;;;;5.95;2.47;;;14.40;90.10;;;;;;6161094;23;20387;-84
2023/05/20 01:06:59;;;;;;;5.68;2.92;;;14.40;90.20;;;;;;6161629;23;20008;-83
2023/05/20 01:09:24;;;;;;;7.47;2.85;;;14.40;90.20;;;;;;6186715;23;20006;-83
2023/05/20 01:12:21;;;;;;;9.43;3.15;;;14.30;90.30;;;;;;6172132;23;20016;-83
2023/05/20 01:15:10;;;;;;;5.10;2.85;;;14.30;90.50;;;;;;6181648;23;19997;-83
2023/05/20 01:17:49;;;;;;;8.68;3.13;;;14.30;90.60;;;;;;6186909;23;20004;-83
2023/05/20 01:20:17;;;;;;;8.50;3.67;;;14.30;90.50;;;;;;6205999;23;20013;-82
2023/05/20 01:22:52;;;;;;;4.97;3.10;;;14.30;90.60;;;;;;6189640;23;20005;-84
2023/05/20 01:25:18;;;;;;;6.47;2.85;;;14.30;90.70;;;;;;6160397;23;20424;-83
2023/05/20 01:27:44;;;;;;;8.93;3.35;;;14.30;90.70;;;;;;6186091;23;19997;-83
2023/05/20 01:30:10;;;;;;;7.18;3.63;;;14.30;90.80;;;;;;6135343;23;20424;-83
2023/05/20 01:32:42;;;;;;;8.20;3.15;;;14.30;90.90;;;;;;6185847;23;20427;-83
2023/05/20 01:35:09;;;;;;;7.68;3.17;;;14.30;91.00;;;;;;6159835;23;20084;-83
2023/05/20 01:37:39;;;;;;;5.47;2.80;;;14.20;91.10;;;;;;6159727;23;20439;-83
2023/05/20 01:40:07;;;;;;;4.25;2.42;;;14.20;91.10;;;;;;6186161;23;20048;-83
2023/05/20 01:42:34;;;;;;;8.02;3.20;;;14.20;91.20;;;;;;6184347;23;20013;-83
2023/05/20 01:45:00;;;;;;;12.20;3.15;;;14.20;91.10;;;;;;6135568;23;20005;-83
2023/05/20 01:47:25;;;;;;;6.55;2.55;;;14.20;91.10;;;;;;6186038;23;20076;-83
2023/05/20 01:49:53;;;;;;;8.25;3.05;;;14.30;91.10;;;;;;6184600;23;20005;-84
2023/05/20 01:52:20;;;;;;;5.47;2.83;;;14.30;91.20;;;;;;6159545;23;20428;-84
2023/05/20 01:54:49;;;;;;;10.07;3.17;;;14.30;91.20;;;;;;6135502;23;20075;-84
2023/05/20 01:57:20;;;;;;;7.68;2.90;;;14.30;91.60;;;;;;6135913;23;20016;-84
2023/05/20 01:59:46;;;;;;;8.20;3.53;;;14.30;91.30;;;;;;6159568;23;20005;-84
2023/05/20 02:02:12;;;;;;;6.53;2.92;;;14.30;91.40;;;;;;6159672;23;20304;-84
2023/05/20 02:04:38;;;;;;;4.10;2.72;;;14.30;91.40;;;;;;6159602;23;20420;-84
2023/05/20 02:07:04;;;;;;;6.10;3.00;;;14.30;91.40;;;;;;6133148;23;20004;-84
2023/05/20 02:09:29;;;;;;;4.55;2.45;;;14.30;91.50;;;;;;6158492;23;20006;-84
2023/05/20 02:11:55;;;;;;;5.82;2.70;;;14.30;91.40;;;;;;6159509;23;20408;-83
2023/05/20 02:14:21;;;;;;;5.63;3.00;;;14.30;91.50;;;;;;6185248;23;20005;-83
2023/05/20 02:16:46;;;;;;;5.85;3.38;;;14.30;91.50;;;;;;6135924;23;20431;-83
2023/05/20 02:19:12;;;;;;;5.38;3.25;;;14.30;91.60;;;;;;6136584;23;20008;-84
2023/05/20 02:21:42;;;;;;;9.63;3.25;;;14.30;91.70;;;;;;6136611;23;20449;-83
2023/05/20 02:24:07;;;;;;;4.93;3.08;;;14.30;91.70;;;;;;6162147;23;20011;-83
2023/05/20 02:26:33;;;;;;;9.27;3.30;;;14.30;91.80;;;;;;6134991;23;20025;-84
2023/05/20 02:28:59;;;;;;;9.30;2.95;;;14.30;91.80;;;;;;6161072;23;19997;-84
2023/05/20 02:31:25;;;;;;;5.07;3.22;;;14.30;91.90;;;;;;6160804;23;20063;-83
2023/05/20 02:33:51;;;;;;;7.68;3.08;;;14.30;91.90;;;;;;6161302;23;20017;-83
2023/05/20 02:36:17;;;;;;;5.70;2.92;;;14.30;91.90;;;;;;6135985;23;20374;-83
2023/05/20 02:38:43;;;;;;;8.32;3.50;;;14.30;91.90;;;;;;6161332;23;20431;-84
2023/05/20 02:41:08;;;;;;;6.78;3.13;;;14.30;92.00;;;;;;6136450;23;20013;-83
2023/05/20 02:43:35;;;;;;;4.82;3.30;;;14.30;92.00;;;;;;6161318;23;20461;-83
2023/05/20 02:46:04;;;;;;;5.30;2.72;;;14.30;92.10;;;;;;6164297;23;20005;-83
2023/05/20 02:48:30;;;;;;;6.68;3.17;;;14.30;92.10;;;;;;6147446;23;20005;-83
2023/05/20 02:50:55;;;;;;;8.25;3.42;;;14.30;92.20;;;;;;6156796;23;20012;-83
2023/05/20 02:53:21;;;;;;;7.00;2.53;;;14.30;92.10;;;;;;6187182;23;20077;-83
2023/05/20 02:55:47;;;;;;;5.07;2.70;;;14.30;92.10;;;;;;6188618;23;19989;-83
2023/05/20 02:58:13;;;;;;;5.63;3.40;;;14.30;92.10;;;;;;6211243;23;20001;-83
2023/05/20 03:00:42;;;;;;;7.88;3.05;;;14.30;92.20;;;;;;6210702;23;20016;-83
2023/05/20 03:03:12;;;;;;;6.50;3.10;;;14.30;92.20;;;;;;6148017;23;20055;-82
2023/05/20 03:05:39;;;;;;;7.23;3.30;;;14.30;92.20;;;;;;6186949;23;20004;-84
2023/05/20 03:08:09;;;;;;;4.70;2.63;;;14.30;92.20;;;;;;6161458;23;20431;-82
2023/05/20 03:10:40;;;;;;;4.83;2.97;;;14.20;92.30;;;;;;6160887;23;20088;-84
2023/05/20 03:13:07;;;;;;;5.07;2.80;;;14.20;92.30;;;;;;6136614;23;20070;-84
2023/05/20 03:15:37;;;;;;;7.40;3.10;;;14.20;92.30;;;;;;6187288;23;20419;-84
2023/05/20 03:18:03;;;;;;;6.20;3.10;;;14.20;92.40;;;;;;6161099;23;20005;-84
2023/05/20 03:20:31;;;;;;;5.20;2.95;;;14.20;92.50;;;;;;6160237;23;20047;-83
2023/05/20 03:22:57;;;;;;;5.78;3.17;;;14.20;92.50;;;;;;6160908;23;20015;-84
2023/05/20 03:25:23;;;;;;;6.97;2.90;;;14.10;92.50;;;;;;6186732;23;20389;-84
2023/05/20 03:27:49;;;;;;;6.15;2.65;;;14.10;92.60;;;;;;6160481;23;20320;-84
2023/05/20 03:30:15;;;;;;;4.97;3.13;;;14.10;92.60;;;;;;6160265;23;20005;-84
2023/05/20 03:32:41;;;;;;;5.05;2.70;;;14.10;92.70;;;;;;6185445;23;20043;-84
2023/05/20 03:35:08;;;;;;;8.70;3.40;;;14.10;92.70;;;;;;6160171;23;20001;-83
2023/05/20 03:37:34;;;;;;;6.32;2.97;;;14.00;92.80;;;;;;6160443;23;20387;-83
2023/05/20 03:40:00;;;;;;;6.57;2.95;;;14.00;92.90;;;;;;6135481;23;20047;-83
2023/05/20 03:42:25;;;;;;;4.43;2.65;;;14.00;93.00;;;;;;6160116;23;20328;-84
2023/05/20 03:44:51;;;;;;;4.15;2.78;;;13.90;93.00;;;;;;6160819;23;20009;-83
2023/05/20 03:47:17;;;;;;;4.55;2.95;;;13.90;93.00;;;;;;6160280;23;20028;-84
2023/05/20 03:49:45;;;;;;;5.82;3.58;;;13.90;93.10;;;;;;6160420;23;20033;-83
2023/05/20 03:52:11;;;;;;;5.63;3.22;;;13.80;93.20;;;;;;6135873;23;20384;-83
2023/05/20 03:54:37;;;;;;;6.70;3.47;;;13.80;93.30;;;;;;6135597;23;20005;-84
2023/05/20 03:57:03;;;;;;;3.63;2.78;;;13.70;93.40;;;;;;6135561;23;20009;-84
2023/05/20 03:59:28;;;;;;;6.10;3.25;;;13.70;93.40;;;;;;6159919;23;20037;-84
2023/05/20 04:01:55;;;;;;;6.72;3.05;;;13.70;93.50;;;;;;6135618;23;20005;-83
2023/05/20 04:04:21;;;;;;;6.05;3.20;;;13.70;93.90;;;;;;6135684;23;20096;-83
2023/05/20 04:06:47;;;;;;;4.32;3.03;;;13.70;93.60;;;;;;6160102;23;20036;-84
2023/05/20 04:09:12;;;;;;;5.13;2.72;;;13.70;93.70;;;;;;6160068;23;20036;-83
2023/05/20 04:11:38;;;;;;;7.30;3.33;;;13.60;93.70;;;;;;6159597;23;20013;-84
2023/05/20 04:14:04;;;;;;;5.95;3.03;;;13.70;94.00;;;;;;6135423;23;20100;-84
2023/05/20 04:16:29;;;;;;;3.92;2.63;;;13.60;93.70;;;;;;6186509;23;20295;-84
2023/05/20 04:18:57;;;;;;;6.20;2.92;;;13.70;93.80;;;;;;6186368;23;20001;-84
2023/05/20 04:21:23;;;;;;;5.07;2.55;;;13.60;93.70;;;;;;6186510;23;20048;-83
2023/05/20 04:23:49;;;;;;;4.18;2.70;;;13.60;93.80;;;;;;6160047;23;20005;-84
2023/05/20 04:26:15;;;;;;;3.20;2.15;;;13.70;93.80;;;;;;6160711;23;20419;-83
2023/05/20 04:28:40;;;;;;;4.45;2.95;;;13.70;93.80;;;;;;6137749;23;20012;-83
2023/05/20 04:31:07;;;;;;;4.88;2.72;;;13.70;93.80;;;;;;6153822;23;19994;-83
2023/05/20 04:33:36;;;;;;;6.82;3.10;;;13.70;93.80;;;;;;6187591;23;20005;-83
2023/05/20 04:36:04;;;;;;;5.80;2.80;;;13.70;93.90;;;;;;6187545;23;20009;-82
2023/05/20 04:38:31;;;;;;;5.53;2.47;;;13.70;94.00;;;;;;6163038;23;20004;-83
2023/05/20 04:41:00;;;;;;;7.18;2.92;;;13.60;94.00;;;;;;6155444;23;20013;-84
2023/05/20 04:43:28;;;;;;;4.03;2.72;;;13.60;94.10;;;;;;6187162;23;20036;-84
2023/05/20 04:45:55;;;;;;;4.05;2.45;;;13.70;94.20;;;;;;6186790;23;20072;-84
2023/05/20 04:48:21;;;;;;;4.47;2.92;;;13.70;94.20;;;;;;6160075;23;20446;-84
2023/05/20 04:50:48;;;;;;;3.25;2.10;;;13.60;94.20;;;;;;6159821;23;20108;-84
2023/05/20 04:53:14;;;;;;;5.05;2.88;;;13.70;94.30;;;;;;6186516;23;20005;-84
2023/05/20 04:55:40;;;;;;;6.10;2.72;;;13.70;94.30;;;;;;6185429;23;20079;-84
2023/05/20 04:58:07;;;;;;;3.70;2.47;;;13.70;94.30;;;;;;6159716;23;20002;-83
2023/05/20 05:00:33;;;;;;;7.35;3.38;;;13.70;94.30;;;;;;6159364;23;20013;-84
2023/05/20 05:03:00;;;;;;;4.40;2.35;;;13.80;94.30;;;;;;6134865;23;20001;-83
2023/05/20 05:05:25;;;;;;;4.88;2.80;;;13.70;94.30;;;;;;6134846;23;20088;-84
2023/05/20 05:07:51;;;;;;;4.45;2.40;;;13.70;94.30;;;;;;6159409;23;20039;-84
2023/05/20 05:10:17;;;;;;;5.30;2.55;;;13.80;94.30;;;;;;6185821;23;20005;-83
2023/05/20 05:12:42;;;;;;;3.78;2.30;;;13.80;94.30;;;;;;6134658;23;20016;-84
2023/05/20 05:15:08;;;;;;;4.35;2.28;;;13.80;94.30;;;;;;6135153;23;20060;-84
2023/05/20 05:17:34;;;;;;;5.05;2.80;;;13.80;94.30;;;;;;6135073;23;20330;-84
2023/05/20 05:20:00;;;;;;;4.80;2.67;;;13.80;94.40;;;;;;6159440;23;20080;-84
2023/05/20 05:22:25;;;;;;;4.78;2.83;;;13.90;94.40;;;;;;6159010;23;20323;-83
2023/05/20 05:24:51;;;;;;;5.00;2.50;;;13.90;94.40;;;;;;6135463;23;20427;-83
2023/05/20 05:27:16;;;;;;;3.88;2.45;;;13.90;94.40;;;;;;6135005;23;20001;-84
2023/05/20 05:29:42;;;;;;;3.88;2.45;;;13.90;94.30;;;;;;6134808;23;20013;-83
2023/05/20 05:32:08;;;;;;;5.32;2.75;;;14.00;94.30;;;;;;6134915;23;20063;-82
2023/05/20 05:34:33;;;;;;;3.63;2.67;;;14.00;94.30;;;;;;6134709;23;20005;-82
2023/05/20 05:37:02;;;;;;;3.72;2.42;;;14.00;94.30;;;;;;6134715;23;20001;-82
2023/05/20 05:39:28;;;;;;;3.95;2.78;;;14.00;94.40;;;;;;6159172;23;20005;-83
2023/05/20 05:41:54;;;;;;;4.57;2.85;;;14.00;94.30;;;;;;6159778;23;20032;-83
2023/05/20 05:44:20;;;;;;;4.85;3.03;;;14.10;94.30;;;;;;6159500;23;20024;-82
2023/05/20 05:46:46;;;;;;;6.55;3.00;;;14.10;94.30;;;;;;6159057;23;20009;-85
2023/05/20 05:49:11;;;;;;;4.25;2.72;;;14.10;94.30;;;;;;6159255;23;20316;-83
2023/05/20 05:51:37;;;;;;;4.72;2.40;;;14.10;94.30;;;;;;6160915;23;20009;-83
2023/05/20 05:54:03;;;;;;;3.85;2.47;;;14.10;94.30;;;;;;6136550;23;20005;-83
2023/05/20 05:56:28;;;;;;;6.28;2.60;;;14.20;94.30;;;;;;6187958;23;20012;-83
2023/05/20 05:58:54;;;;;;;3.65;2.22;;;14.20;94.30;;;;;;6161324;23;20009;-83
2023/05/20 06:01:20;;;;;;;3.72;2.28;;;14.20;94.30;;;;;;6161713;23;20009;-83
2023/05/20 06:03:49;;;;;;;4.60;2.88;;;14.30;94.30;;;;;;6161789;23;20033;-83
2023/05/20 06:06:14;;;;;;;4.43;2.45;;;14.30;94.30;;;;;;6161958;23;20010;-83
2023/05/20 06:08:40;;;;;;;4.00;2.30;;;14.40;94.30;;;;;;6162690;23;20015;-83
2023/05/20 06:11:06;;;;;;;5.25;2.45;;;14.40;94.20;;;;;;6178084;23;19997;-83
2023/05/20 06:13:32;;;;;;;4.70;2.10;;;14.40;94.20;;;;;;6189114;23;20051;-82
2023/05/20 06:15:57;;;;;;;4.40;2.60;;;14.50;94.20;;;;;;6214221;23;20134;-82
2023/05/20 06:18:23;;;;;;;4.38;2.63;;;14.50;94.20;;;;;;6214066;23;20029;-83
2023/05/20 06:20:55;;;;;;;3.60;2.47;;;14.50;94.10;;;;;;6181883;23;20009;-83
2023/05/20 06:23:20;;;;;;;7.65;2.58;;;14.60;94.10;;;;;;6188606;23;20360;-83
2023/05/20 06:25:47;;;;;;;3.63;2.30;;;14.70;94.20;;;;;;6161210;23;20008;-83
2023/05/20 06:28:13;;;;;;;6.47;2.53;;;14.80;94.10;;;;;;6162211;23;20008;-84
2023/05/20 06:30:39;;;;;;;3.10;2.33;;;14.80;94.00;;;;;;6160940;23;20016;-83
2023/05/20 06:33:07;;;;;;;3.40;2.05;;;14.80;94.00;;;;;;6161115;23;20339;-83
2023/05/20 06:35:33;;;;;;;4.05;2.15;;;14.90;94.00;;;;;;6160332;23;20418;-83
2023/05/20 06:38:02;;;;;;;3.47;2.00;;;15.00;93.90;;;;;;6161218;23;20001;-83
2023/05/20 06:40:28;;;;;;;3.90;2.42;;;15.10;93.90;;;;;;6136354;23;20012;-83
2023/05/20 06:42:53;;;;;;;2.35;1.98;;;15.10;93.80;;;;;;6135229;23;20017;-83
2023/05/20 06:45:20;;;;;;;6.47;2.33;;;15.20;93.80;;;;;;6187553;23;20020;-84
2023/05/20 06:47:47;;;;;;;4.00;2.20;;;15.30;93.70;;;;;;6161191;23;20011;-83
2023/05/20 06:50:13;;;;;;;6.13;2.65;;;15.30;93.60;;;;;;6136479;23;20327;-83
2023/05/20 06:52:39;;;;;;;4.88;2.30;;;15.30;93.60;;;;;;6135854;23;20040;-83
2023/05/20 06:55:05;;;;;;;5.47;2.30;;;15.40;93.50;;;;;;6160518;23;20088;-83
2023/05/20 06:57:31;;;;;;;2.97;2.00;;;15.40;93.50;;;;;;6160613;23;20008;-83
2023/05/20 06:59:56;;;;;;;3.25;2.22;;;15.50;93.50;;;;;;6135939;23;20009;-83
2023/05/20 07:02:22;;;;;;;2.45;1.88;;;15.60;93.40;;;;;;6186765;23;20138;-83
2023/05/20 07:04:48;;;;;;;4.32;2.20;;;15.70;93.40;;;;;;6160527;23;20001;-84
2023/05/20 07:07:14;;;;;;;3.33;2.55;;;15.80;93.20;;;;;;6136528;23;20150;-83
2023/05/20 07:09:42;;;;;;;3.58;2.13;;;15.80;93.00;;;;;;6136057;23;20435;-83
2023/05/20 07:12:07;;;;;;;4.30;2.50;;;15.80;92.90;;;;;;6161320;23;20009;-83
2023/05/20 07:14:33;;;;;;;2.92;1.90;;;15.90;92.90;;;;;;6136034;23;20032;-83
2023/05/20 07:16:59;;;;;;;3.25;2.25;;;15.90;92.90;;;;;;6160474;23;19997;-83
2023/05/20 07:19:24;;;;;;;6.68;2.85;;;16.00;92.80;;;;;;6160788;23;20005;-84
2023/05/20 07:21:50;;;;;;;4.30;2.60;;;16.00;92.70;;;;;;6135975;23;20428;-84
2023/05/20 07:24:16;;;;;;;3.50;2.50;;;16.10;92.60;;;;;;6135672;23;20005;-84
2023/05/20 07:26:42;;;;;;;4.88;2.70;;;16.10;92.50;;;;;;6160670;23;20008;-83
2023/05/20 07:29:09;;;;;;;5.00;2.55;;;16.20;92.20;;;;;;6187131;23;20009;-83
2023/05/20 07:31:35;;;;;;;3.38;2.38;;;16.20;92.30;;;;;;6187144;23;20009;-83
2023/05/20 07:34:01;;;;;;;6.72;2.80;;;16.20;92.30;;;;;;6160576;23;20009;-84
2023/05/20 07:36:27;;;;;;;3.50;2.40;;;16.30;92.10;;;;;;6160986;23;20008;-83
2023/05/20 07:38:53;;;;;;;3.45;2.25;;;16.30;92.10;;;;;;6160494;23;20001;-83
2023/05/20 07:41:20;;;;;;;4.38;2.10;;;16.40;92.20;;;;;;6186649;23;20009;-84
2023/05/20 07:43:45;;;;;;;4.07;2.47;;;16.50;92.10;;;;;;6159981;23;20067;-83
2023/05/20 07:46:11;;;;;;;5.07;2.88;;;16.50;92.10;;;;;;6187193;23;20009;-84
2023/05/20 07:48:37;;;;;;;4.65;2.47;;;16.60;91.70;;;;;;6135986;23;20096;-84
2023/05/20 07:51:03;;;;;;;4.13;2.25;;;16.60;91.60;;;;;;6160900;23;20005;-84
2023/05/20 07:53:28;;;;;;;3.33;2.08;;;16.70;91.60;;;;;;6147714;23;20012;-83
2023/05/20 07:55:55;;;;;;;2.97;2.22;;;16.70;91.60;;;;;;6187869;23;20015;-83
2023/05/20 07:58:21;;;;;;;5.97;2.55;;;16.80;91.50;;;;;;6164003;23;19992;-85
2023/05/20 08:00:47;;;;;;;2.92;2.28;;;16.90;91.60;;;;;;6187765;23;19986;-82
2023/05/20 08:03:13;;;;;;;5.78;2.50;;;16.90;91.50;;;;;;6186445;23;20009;-80
2023/05/20 08:05:40;;;;;;;3.72;2.40;;;17.00;91.30;;;;;;6162391;23;20494;-83
2023/05/20 08:08:06;;;;;;;4.57;2.28;;;17.00;91.10;;;;;;6161186;23;20008;-85
2023/05/20 08:10:32;;;;;;;3.72;2.45;;;17.00;91.00;;;;;;6186622;23;20013;-84
2023/05/20 08:12:57;;;;;;;3.60;2.65;;;17.10;90.70;;;;;;6160323;23;20005;-84
2023/05/20 08:15:23;;;;;;;6.45;2.75;;;17.20;90.70;;;;;;6136183;23;20057;-83
2023/05/20 08:17:49;;;;;;;3.97;2.55;;;17.20;90.50;;;;;;6160072;23;20324;-84
2023/05/20 08:20:15;;;;;;;3.45;2.35;;;17.20;90.30;;;;;;6160016;23;20454;-83
2023/05/20 08:22:41;;;;;;;4.65;2.53;;;17.20;90.20;;;;;;6186677;23;20001;-84
2023/05/20 08:25:07;;;;;;;2.92;2.30;;;17.20;90.00;;;;;;6135200;23;20020;-84
2023/05/20 08:27:36;;;;;;;4.10;2.50;;;17.20;89.70;;;;;;6160024;23;20004;-84
2023/05/20 08:30:04;;;;;;;3.25;2.05;;;17.20;89.20;;;;;;6159642;23;20368;-84
2023/05/20 08:32:30;;;;;;;3.53;2.50;;;17.30;89.50;;;;;;6184666;23;20064;-84
2023/05/20 08:34:56;;;;;;;3.33;2.30;;;17.30;89.80;;;;;;6160283;23;20005;-84
2023/05/20 08:37:21;;;;;;;3.25;2.40;;;17.40;89.70;;;;;;6159501;23;20013;-84
2023/05/20 08:39:48;;;;;;;6.57;2.60;;;17.40;89.60;;;;;;6159674;23;20005;-84
2023/05/20 08:42:15;;;;;;;7.28;2.30;;;17.50;88.60;;;;;;6135192;23;20009;-85
2023/05/20 08:44:45;;;;;;;4.55;2.40;;;17.50;88.60;;;;;;6135413;23;20427;-83
2023/05/20 08:47:10;;;;;;;4.75;2.45;;;17.50;88.50;;;;;;6135182;23;20001;-84
2023/05/20 08:49:37;;;;;;;3.42;2.22;;;17.60;88.50;;;;;;6159719;23;20009;-84
2023/05/20 08:52:04;;;;;;;3.83;2.40;;;17.60;88.20;;;;;;6159873;23;20009;-84
2023/05/20 08:54:44;;;;;;;5.05;2.15;;;17.70;87.80;;;;;;6159655;23;20319;-85
2023/05/20 08:57:12;;;;;;;6.32;2.10;;;17.70;86.80;;;;;;6186403;23;20068;-84
2023/05/20 08:59:45;;;;;;;3.50;2.30;;;17.70;86.20;;;;;;6159680;23;20028;-85
2023/05/20 09:02:14;;;;;;;2.90;1.80;;;17.70;85.80;;;;;;6185767;23;20393;-85
2023/05/20 09:04:40;;;;;;;3.03;2.03;;;17.80;86.30;;;;;;6186225;23;20062;-84
2023/05/20 09:07:06;;;;;;;4.72;1.90;;;17.80;86.10;;;;;;6134763;23;20088;-84
2023/05/20 09:09:35;;;;;;;2.45;1.83;;;17.90;85.80;;;;;;6159560;23;20080;-84
2023/05/20 09:12:02;;;;;;;2.42;1.90;;;17.90;85.80;;;;;;6134915;23;20059;-85
2023/05/20 09:14:29;;;;;;;3.95;2.20;;;18.00;85.20;;;;;;6159649;23;20012;-85
2023/05/20 09:16:55;;;;;;;4.63;2.22;;;18.00;84.00;;;;;;6159682;23;20007;-85
2023/05/20 09:19:24;;;;;;;7.72;2.20;;;18.10;84.10;;;;;;6135235;23;20080;-85
2023/05/20 09:21:57;;;;;;;2.75;1.80;;;18.10;84.20;;;;;;6135142;23;20009;-83
2023/05/20 09:24:24;;;;;;;2.80;1.88;;;18.20;84.50;;;;;;6135781;23;20005;-85
2023/05/20 09:26:50;;;;;;;3.95;2.20;;;18.20;84.70;;;;;;6159560;23;20518;-84
2023/05/20 09:29:16;;;;;;;7.28;1.80;;;18.30;84.00;;;;;;6186330;23;20005;-84
2023/05/20 09:31:43;;;;;;;3.45;1.95;;;18.30;83.00;;;;;;6186198;23;20323;-85
2023/05/20 09:34:09;;;;;;;2.80;1.92;;;18.30;83.20;;;;;;6159475;23;20383;-84
2023/05/20 09:36:35;;;;;;;3.53;2.00;;;18.40;83.40;;;;;;6160372;23;20006;-84
2023/05/20 09:39:04;;;;;;;4.43;1.90;;;18.40;83.30;;;;;;6186757;23;20420;-85
2023/05/20 09:42:01;;;;;;;3.10;1.40;;;18.40;83.00;;;;;;6171551;23;20073;-85
2023/05/20 09:44:28;;;;;;;4.90;2.10;;;18.40;83.10;;;;;;6211938;23;19997;-83
2023/05/20 09:46:55;;;;;;;2.17;1.58;;;18.50;82.50;;;;;;6160053;23;20001;-84
2023/05/20 09:49:22;;;;;;;2.53;1.80;;;18.50;82.00;;;;;;6207917;23;20045;-85
2023/05/20 09:51:49;;;;;;;6.88;1.90;;;18.50;82.30;;;;;;6207070;23;20020;-84
2023/05/20 09:54:18;;;;;;;3.08;1.70;;;18.50;81.80;;;;;;6159868;23;20335;-84
2023/05/20 09:56:45;;;;;;;2.75;1.77;;;18.40;81.80;;;;;;6159327;23;20069;-85
2023/05/20 09:59:11;;;;;;;3.40;1.60;;;18.40;81.70;;;;;;6184246;23;20366;-85
2023/05/20 10:01:36;;;;;;;2.35;1.90;;;18.50;81.90;;;;;;6134575;23;20009;-84
2023/05/20 10:04:05;;;;;;;2.95;1.45;;;18.50;81.40;;;;;;6158858;23;20016;-83
2023/05/20 10:06:40;;;;;;;6.22;2.00;;;18.50;81.70;;;;;;6159531;23;20453;-84
2023/05/20 10:09:23;;;;;;;3.83;2.05;;;18.60;82.00;;;;;;6185642;23;20055;-85
2023/05/20 10:12:13;;;;;;;2.90;1.60;;;18.70;81.80;;;;;;6185909;23;20027;-85
2023/05/20 10:15:02;;;;;;;2.22;1.50;;;18.80;81.80;;;;;;6186069;23;20001;-84
2023/05/20 10:18:01;;;;;;;3.33;1.60;;;18.80;81.20;;;;;;6159448;23;20319;-85
2023/05/20 10:20:26;;;;;;;3.30;1.95;;;18.90;81.60;;;;;;6177011;23;20005;-84
2023/05/20 10:22:59;;;;;;;5.68;2.00;;;19.00;81.20;;;;;;6185511;23;20012;-85
2023/05/20 10:25:28;;;;;;;2.08;1.80;;;19.00;81.30;;;;;;6159377;23;20480;-85
2023/05/20 10:28:07;;;;;;;2.25;1.67;;;19.00;81.20;;;;;;6134725;23;20002;-85
2023/05/20 10:30:32;;;;;;;4.28;1.75;;;19.10;81.00;;;;;;6159074;23;20005;-86
2023/05/20 10:33:04;;;;;;;3.25;1.70;;;19.10;80.70;;;;;;6158882;23;20087;-83
2023/05/20 10:35:30;;;;;;;5.05;1.98;;;19.10;80.60;;;;;;6185490;23;19997;-85
2023/05/20 10:38:16;;;;;;;2.72;1.60;;;19.10;80.80;;;;;;6160990;23;20005;-85
2023/05/20 10:40:42;;;;;;;2.70;2.00;;;19.20;80.40;;;;;;6136316;23;20013;-85
2023/05/20 10:43:12;;;;;;;4.60;1.85;;;19.20;80.10;;;;;;6160896;23;20001;-85
2023/05/20 10:45:49;;;;;;;4.03;1.80;;;19.20;80.50;;;;;;6136461;23;20013;-85
2023/05/20 10:48:26;;;;;;;2.17;1.58;;;19.20;79.90;;;;;;6185877;23;20049;-84
2023/05/20 10:51:02;;;;;;;3.80;1.65;;;19.30;80.10;;;;;;6187639;23;20004;-84
2023/05/20 10:53:37;;;;;;;3.53;1.80;;;19.30;79.50;;;;;;6161097;23;20009;-84
2023/05/20 10:56:03;;;;;;;4.60;1.75;;;19.30;79.40;;;;;;6187653;23;20004;-84
2023/05/20 10:58:36;;;;;;;2.08;1.33;;;19.30;78.60;;;;;;6161397;23;20005;-84
2023/05/20 11:01:02;;;;;;;2.15;1.48;;;19.40;79.20;;;;;;6187120;23;20088;-84
2023/05/20 11:03:32;;;;;;;3.28;1.83;;;19.40;79.50;;;;;;6161293;23;20040;-84
2023/05/20 11:05:57;;;;;;;1.95;1.45;;;19.50;79.20;;;;;;6160614;23;20327;-84
2023/05/20 11:08:28;;;;;;;2.33;1.40;;;19.60;79.10;;;;;;6136509;23;20004;-84
2023/05/20 11:10:55;;;;;;;;;;;19.70;79.20;;;;;;6161765;23;20005;-85
2023/05/20 11:13:20;;;;;;;3.78;1.80;;;19.70;78.70;;;;;;6161050;23;20270;-84
2023/05/20 11:15:48;;;;;;;6.72;1.80;;;19.70;78.50;;;;;;6137156;23;20067;-85
2023/05/20 11:18:14;;;;;;;2.33;1.42;;;19.70;78.70;;;;;;6160805;23;20005;-85
2023/05/20 11:20:40;;;;;;;4.32;1.85;;;19.80;78.40;;;;;;6161969;23;20013;-85
2023/05/20 11:23:10;;;;;;;4.75;1.80;;;19.80;78.00;;;;;;6161633;23;20009;-85
2023/05/20 11:25:43;;;;;;;3.25;1.50;;;19.80;77.60;;;;;;6191295;23;19997;-85
2023/05/20 11:28:13;;;;;;;2.15;1.40;;;19.70;77.70;;;;;;6150147;23;20301;-83
2023/05/20 11:30:40;;;;;;;1.85;1.20;;;19.80;78.20;;;;;;6187533;23;20020;-84
2023/05/20 11:33:05;;;;;;;3.17;1.42;;;19.80;78.60;;;;;;6212750;23;20008;-83
2023/05/20 11:35:32;;;;;;;2.83;1.38;;;19.90;77.90;;;;;;6163714;23;19989;-85
2023/05/20 11:38:07;;;;;;;3.53;1.70;;;19.90;78.00;;;;;;6210274;23;20000;-85
2023/05/20 11:40:46;;;;;;;4.28;1.40;;;20.00;77.90;;;;;;6164559;23;20001;-85
2023/05/20 11:43:21;;;;;;;1.95;1.60;;;20.00;77.90;;;;;;6187665;23;20004;-85
2023/05/20 11:45:55;;;;;;;2.13;1.30;;;20.10;77.10;;;;;;6134291;23;20045;-84
2023/05/20 11:48:20;;;;;;;3.00;1.20;;;20.10;76.90;;;;;;6130858;23;20089;-84
2023/05/20 11:50:47;;;;;;;2.05;1.40;;;20.20;77.10;;;;;;6156885;23;20037;-86
2023/05/20 11:53:21;;;;;;;1.77;1.40;;;20.20;76.90;;;;;;6130806;23;20049;-85
2023/05/20 11:55:51;;;;;;;3.08;1.40;;;20.30;76.30;;;;;;6106882;23;20010;-85
2023/05/20 11:58:26;;;;;;;2.33;1.23;;;20.20;75.50;;;;;;6130743;23;20056;-85
2023/05/20 12:00:52;;;;;;;2.20;1.38;;;20.20;76.10;;;;;;6130152;23;20063;-85
2023/05/20 12:03:20;;;;;;;1.35;1.25;;;20.30;76.10;;;;;;6155318;23;20029;-84
2023/05/20 12:05:47;;;;;;;2.13;1.60;;;20.30;76.10;;;;;;6130513;23;20002;-84
2023/05/20 12:08:16;;;;;;;2.28;1.20;;;20.30;76.10;;;;;;6156433;23;20379;-85
2023/05/20 12:10:43;;;;;;;2.17;1.23;;;20.30;76.50;;;;;;6106793;23;20009;-85
2023/05/20 12:13:12;;;;;;;2.40;1.20;;;20.40;76.90;;;;;;6156651;23;20037;-84
2023/05/20 12:15:45;;;;;;;1.55;1.42;;;20.50;76.50;;;;;;6106577;23;20002;-85
2023/05/20 12:18:13;;;;;;;2.42;1.50;;;20.60;76.40;;;;;;6106450;23;20428;-84
2023/05/20 12:20:39;;;;;;;3.38;1.70;;;20.70;76.20;;;;;;6130979;23;20009;-85
2023/05/20 12:23:07;;;;;;;1.92;1.40;;;20.70;74.80;;;;;;6130690;23;20072;-86
2023/05/20 12:25:33;;;;;;;2.20;1.60;;;20.70;74.90;;;;;;6105941;23;20030;-84
2023/05/20 12:28:01;;;;;;;2.72;1.40;;;20.70;74.50;;;;;;6130412;23;20328;-85
2023/05/20 12:30:27;;;;;;;1.58;1.20;;;20.60;74.90;;;;;;6154773;23;20010;-85
2023/05/20 12:32:53;;;;;;;1.38;1.27;;;20.60;75.30;;;;;;6106280;23;20060;-86
2023/05/20 12:35:25;;;;;;;1.67;1.58;;;20.70;74.90;;;;;;6105707;23;20001;-85
2023/05/20 12:37:51;;;;;;;4.57;1.30;;;20.70;75.00;;;;;;6156789;23;20068;-85
2023/05/20 12:40:17;;;;;;;1.45;1.27;;;20.70;75.20;;;;;;6129973;23;20029;-85
2023/05/20 12:42:43;;;;;;;3.25;1.58;;;20.70;75.40;;;;;;6130856;23;20013;-85
2023/05/20 12:45:09;;;;;;;4.35;1.30;;;20.70;74.80;;;;;;6105695;23;20502;-85
2023/05/20 12:47:35;;;;;;;1.65;1.20;;;20.70;75.00;;;;;;6130659;23;20008;-86
2023/05/20 12:50:02;;;;;;;2.25;1.33;;;20.70;75.20;;;;;;6130439;23;20175;-85